sensor_id;sensor_type;location;lat;lon;timestamp;pressure;altitude;pressure_sealevel;temperature;humidity
30110;BME280;14965;50.660;13.226;2023-03-22T00:01:23;94622.69;;;8.17;100.00
30110;BME280;14965;50.660;13.226;2023-03-22T00:03:50;94622.25;;;8.18;100.00
30110;BME280;14965;50.660;13.226;2023-03-22T00:06:18;94629.66;;;8.21;100.00
30110;BME280;14965;50.660;13.226;2023-03-22T00:08:47;94634.00;;;8.19;100.00
30110;BME280;14965;50.660;13.226;2023-03-22T00:11:13;94635.22;;;8.18;100.00
30110;BME280;14965;50.660;13.226;2023-03-22T00:13:39;94630.16;;;8.16;100.00
30110;BME280;14965;50.660;13.226;2023-03-22T00:16:06;94630.56;;;8.15;100.00
30110;BME280;14965;50.660;13.226;2023-03-22T00:18:32;94629.97;;;8.07;100.00
30110;BME280;14965;50.660;13.226;2023-03-22T00:20:59;94624.91;;;8.06;100.00
30110;BME280;14965;50.660;13.226;2023-03-22T00:23:27;94622.16;;;8.06;100.00
30110;BME280;14965;50.660;13.226;2023-03-22T00:25:54;94622.22;;;8.02;100.00
30110;BME280;14965;50.660;13.226;2023-03-22T00:28:20;94616.53;;;7.93;100.00
30110;BME280;14965;50.660;13.226;2023-03-22T00:30:54;94613.09;;;7.89;100.00
30110;BME280;14965;50.660;13.226;2023-03-22T00:33:21;94615.16;;;7.85;100.00
30110;BME280;14965;50.660;13.226;2023-03-22T00:35:49;94610.53;;;7.82;100.00
30110;BME280;14965;50.660;13.226;2023-03-22T00:38:15;94608.63;;;7.79;100.00
30110;BME280;14965;50.660;13.226;2023-03-22T00:40:43;94598.56;;;7.72;100.00
30110;BME280;14965;50.660;13.226;2023-03-22T00:43:09;94604.56;;;7.67;100.00
30110;BME280;14965;50.660;13.226;2023-03-22T00:45:35;94607.38;;;7.63;100.00
30110;BME280;14965;50.660;13.226;2023-03-22T00:48:01;94617.25;;;7.61;100.00
30110;BME280;14965;50.660;13.226;2023-03-22T00:50:26;94609.50;;;7.56;100.00
30110;BME280;14965;50.660;13.226;2023-03-22T00:52:52;94606.41;;;7.54;100.00
30110;BME280;14965;50.660;13.226;2023-03-22T00:55:18;94601.00;;;7.50;100.00
30110;BME280;14965;50.660;13.226;2023-03-22T00:57:45;94610.16;;;7.43;100.00
30110;BME280;14965;50.660;13.226;2023-03-22T01:00:12;94613.06;;;7.36;100.00
30110;BME280;14965;50.660;13.226;2023-03-22T01:02:38;94607.63;;;7.33;100.00
30110;BME280;14965;50.660;13.226;2023-03-22T01:05:05;94604.97;;;7.29;100.00
30110;BME280;14965;50.660;13.226;2023-03-22T01:07:31;94601.50;;;7.25;100.00
30110;BME280;14965;50.660;13.226;2023-03-22T01:09:58;94605.53;;;7.20;100.00
30110;BME280;14965;50.660;13.226;2023-03-22T01:12:24;94609.53;;;7.16;100.00
30110;BME280;14965;50.660;13.226;2023-03-22T01:14:51;94599.84;;;7.11;100.00
30110;BME280;14965;50.660;13.226;2023-03-22T01:17:17;94604.19;;;7.09;100.00
30110;BME280;14965;50.660;13.226;2023-03-22T01:19:42;94607.50;;;7.00;100.00
30110;BME280;14965;50.660;13.226;2023-03-22T01:22:08;94594.59;;;6.97;100.00
30110;BME280;14965;50.660;13.226;2023-03-22T01:24:34;94600.16;;;6.93;100.00
30110;BME280;14965;50.660;13.226;2023-03-22T01:27:00;94581.44;;;6.88;100.00
30110;BME280;14965;50.660;13.226;2023-03-22T01:29:26;94584.31;;;6.81;100.00
30110;BME280;14965;50.660;13.226;2023-03-22T01:31:53;94581.00;;;6.70;100.00
30110;BME280;14965;50.660;13.226;2023-03-22T01:34:19;94572.47;;;6.64;100.00
30110;BME280;14965;50.660;13.226;2023-03-22T01:36:45;94576.91;;;6.58;100.00
30110;BME280;14965;50.660;13.226;2023-03-22T01:39:11;94570.72;;;6.54;100.00
30110;BME280;14965;50.660;13.226;2023-03-22T01:41:37;94577.16;;;6.44;100.00
30110;BME280;14965;50.660;13.226;2023-03-22T01:44:09;94579.59;;;6.38;99.91
30110;BME280;14965;50.660;13.226;2023-03-22T01:46:35;94570.25;;;6.36;99.81
30110;BME280;14965;50.660;13.226;2023-03-22T01:49:05;94569.06;;;6.37;100.00
30110;BME280;14965;50.660;13.226;2023-03-22T01:51:33;94558.84;;;6.37;100.00
30110;BME280;14965;50.660;13.226;2023-03-22T01:54:04;94559.63;;;6.38;99.87
30110;BME280;14965;50.660;13.226;2023-03-22T01:56:36;94556.88;;;6.38;99.69
30110;BME280;14965;50.660;13.226;2023-03-22T01:59:04;94558.91;;;6.34;99.62
30110;BME280;14965;50.660;13.226;2023-03-22T02:01:32;94559.41;;;6.29;98.43
30110;BME280;14965;50.660;13.226;2023-03-22T02:04:05;94556.66;;;6.29;98.02
30110;BME280;14965;50.660;13.226;2023-03-22T02:06:34;94564.13;;;6.28;97.33
30110;BME280;14965;50.660;13.226;2023-03-22T02:09:00;94563.34;;;6.28;97.10
30110;BME280;14965;50.660;13.226;2023-03-22T02:11:31;94563.75;;;6.26;97.13
30110;BME280;14965;50.660;13.226;2023-03-22T02:14:29;94561.44;;;6.24;97.13
30110;BME280;14965;50.660;13.226;2023-03-22T02:17:16;94561.06;;;6.22;96.52
30110;BME280;14965;50.660;13.226;2023-03-22T02:20:33;94556.13;;;6.14;96.35
30110;BME280;14965;50.660;13.226;2023-03-22T02:27:15;94547.59;;;6.08;96.28
30110;BME280;14965;50.660;13.226;2023-03-22T02:29:58;94544.91;;;6.05;95.84
30110;BME280;14965;50.660;13.226;2023-03-22T02:33:02;94556.69;;;6.02;96.58
30110;BME280;14965;50.660;13.226;2023-03-22T02:36:15;94553.66;;;5.96;95.94
30110;BME280;14965;50.660;13.226;2023-03-22T02:39:07;94551.00;;;5.89;96.19
30110;BME280;14965;50.660;13.226;2023-03-22T02:41:49;94558.06;;;5.90;95.94
30110;BME280;14965;50.660;13.226;2023-03-22T02:44:25;94561.63;;;5.87;96.02
30110;BME280;14965;50.660;13.226;2023-03-22T02:47:01;94553.47;;;5.83;96.10
30110;BME280;14965;50.660;13.226;2023-03-22T02:49:36;94560.13;;;5.82;95.73
30110;BME280;14965;50.660;13.226;2023-03-22T02:52:13;94556.25;;;5.80;96.25
30110;BME280;14965;50.660;13.226;2023-03-22T02:54:49;94546.09;;;5.77;96.11
30110;BME280;14965;50.660;13.226;2023-03-22T02:57:25;94547.72;;;5.74;95.94
30110;BME280;14965;50.660;13.226;2023-03-22T02:59:54;94550.53;;;5.70;96.40
30110;BME280;14965;50.660;13.226;2023-03-22T03:02:23;94551.78;;;5.66;96.09
30110;BME280;14965;50.660;13.226;2023-03-22T03:04:52;94547.88;;;5.63;96.13
30110;BME280;14965;50.660;13.226;2023-03-22T03:07:24;94551.47;;;5.60;96.45
30110;BME280;14965;50.660;13.226;2023-03-22T03:09:53;94544.84;;;5.58;96.52
30110;BME280;14965;50.660;13.226;2023-03-22T03:12:23;94549.16;;;5.55;96.12
30110;BME280;14965;50.660;13.226;2023-03-22T03:14:50;94550.06;;;5.48;96.44
30110;BME280;14965;50.660;13.226;2023-03-22T03:17:28;94548.16;;;5.45;96.22
30110;BME280;14965;50.660;13.226;2023-03-22T03:20:18;94552.91;;;5.41;96.09
30110;BME280;14965;50.660;13.226;2023-03-22T03:22:58;94548.66;;;5.37;96.32
30110;BME280;14965;50.660;13.226;2023-03-22T03:25:36;94549.47;;;5.34;95.69
30110;BME280;14965;50.660;13.226;2023-03-22T03:28:10;94553.03;;;5.31;95.92
30110;BME280;14965;50.660;13.226;2023-03-22T03:30:48;94554.66;;;5.28;95.98
30110;BME280;14965;50.660;13.226;2023-03-22T03:33:20;94555.47;;;5.25;95.93
30110;BME280;14965;50.660;13.226;2023-03-22T03:35:54;94553.97;;;5.20;95.85
30110;BME280;14965;50.660;13.226;2023-03-22T03:38:28;94546.19;;;5.19;96.14
30110;BME280;14965;50.660;13.226;2023-03-22T03:41:01;94552.81;;;5.18;96.24
30110;BME280;14965;50.660;13.226;2023-03-22T03:43:28;94550.91;;;5.15;96.76
30110;BME280;14965;50.660;13.226;2023-03-22T03:45:55;94550.97;;;5.11;96.64
30110;BME280;14965;50.660;13.226;2023-03-22T03:48:27;94557.25;;;5.08;96.23
30110;BME280;14965;50.660;13.226;2023-03-22T03:50:56;94554.94;;;5.07;96.74
30110;BME280;14965;50.660;13.226;2023-03-22T03:53:23;94561.56;;;5.06;97.06
30110;BME280;14965;50.660;13.226;2023-03-22T03:55:49;94559.25;;;5.04;97.11
30110;BME280;14965;50.660;13.226;2023-03-22T03:58:16;94563.97;;;5.04;97.27
30110;BME280;14965;50.660;13.226;2023-03-22T04:00:43;94567.47;;;5.04;97.21
30110;BME280;14965;50.660;13.226;2023-03-22T04:03:09;94566.72;;;5.00;97.21
30110;BME280;14965;50.660;13.226;2023-03-22T04:05:35;94562.44;;;4.99;97.66
30110;BME280;14965;50.660;13.226;2023-03-22T04:08:00;94563.66;;;4.98;97.44
30110;BME280;14965;50.660;13.226;2023-03-22T04:10:26;94558.22;;;4.94;97.71
30110;BME280;14965;50.660;13.226;2023-03-22T04:12:52;94556.25;;;4.95;97.84
30110;BME280;14965;50.660;13.226;2023-03-22T04:15:20;94558.25;;;4.91;98.41
30110;BME280;14965;50.660;13.226;2023-03-22T04:17:46;94554.31;;;4.92;98.97
30110;BME280;14965;50.660;13.226;2023-03-22T04:20:12;94558.59;;;4.93;98.90
30110;BME280;14965;50.660;13.226;2023-03-22T04:22:40;94552.41;;;4.89;99.38
30110;BME280;14965;50.660;13.226;2023-03-22T04:25:09;94550.09;;;4.87;99.56
30110;BME280;14965;50.660;13.226;2023-03-22T04:27:35;94552.03;;;4.87;100.00
30110;BME280;14965;50.660;13.226;2023-03-22T04:30:01;94549.66;;;4.89;100.00
30110;BME280;14965;50.660;13.226;2023-03-22T04:32:28;94559.44;;;4.90;100.00
30110;BME280;14965;50.660;13.226;2023-03-22T04:34:54;94553.50;;;4.95;100.00
30110;BME280;14965;50.660;13.226;2023-03-22T04:37:21;94551.25;;;4.90;100.00
30110;BME280;14965;50.660;13.226;2023-03-22T04:39:47;94545.00;;;4.89;100.00
30110;BME280;14965;50.660;13.226;2023-03-22T04:42:12;94552.34;;;4.92;100.00
30110;BME280;14965;50.660;13.226;2023-03-22T04:44:38;94559.34;;;4.97;100.00
30110;BME280;14965;50.660;13.226;2023-03-22T04:47:05;94551.09;;;5.00;100.00
30110;BME280;14965;50.660;13.226;2023-03-22T04:49:32;94551.47;;;5.03;100.00
30110;BME280;14965;50.660;13.226;2023-03-22T04:51:58;94554.16;;;5.06;100.00
30110;BME280;14965;50.660;13.226;2023-03-22T04:54:24;94549.84;;;5.05;100.00
30110;BME280;14965;50.660;13.226;2023-03-22T04:56:50;94544.75;;;5.07;100.00
30110;BME280;14965;50.660;13.226;2023-03-22T04:59:17;94543.16;;;5.10;100.00
30110;BME280;14965;50.660;13.226;2023-03-22T05:01:43;94537.66;;;5.10;100.00
30110;BME280;14965;50.660;13.226;2023-03-22T05:04:09;94538.09;;;5.08;100.00
30110;BME280;14965;50.660;13.226;2023-03-22T05:06:36;94535.72;;;5.10;100.00
30110;BME280;14965;50.660;13.226;2023-03-22T05:09:02;94531.34;;;5.16;100.00
30110;BME280;14965;50.660;13.226;2023-03-22T05:11:28;94534.00;;;5.23;100.00
30110;BME280;14965;50.660;13.226;2023-03-22T05:13:54;94530.78;;;5.29;100.00
30110;BME280;14965;50.660;13.226;2023-03-22T05:16:21;94531.84;;;5.35;100.00
30110;BME280;14965;50.660;13.226;2023-03-22T05:18:47;94522.78;;;5.41;100.00
30110;BME280;14965;50.660;13.226;2023-03-22T05:21:15;94523.06;;;5.47;100.00
30110;BME280;14965;50.660;13.226;2023-03-22T05:23:43;94515.97;;;5.53;100.00
30110;BME280;14965;50.660;13.226;2023-03-22T05:26:10;94510.81;;;5.55;100.00
30110;BME280;14965;50.660;13.226;2023-03-22T05:28:36;94519.31;;;5.64;100.00
30110;BME280;14965;50.660;13.226;2023-03-22T05:31:03;94522.69;;;5.72;100.00
30110;BME280;14965;50.660;13.226;2023-03-22T05:33:29;94528.06;;;5.79;100.00
30110;BME280;14965;50.660;13.226;2023-03-22T05:35:55;94523.31;;;5.83;99.92
30110;BME280;14965;50.660;13.226;2023-03-22T05:38:21;94520.88;;;5.89;99.62
30110;BME280;14965;50.660;13.226;2023-03-22T05:40:48;94529.00;;;5.96;99.92
30110;BME280;14965;50.660;13.226;2023-03-22T05:43:15;94535.97;;;6.01;99.21
30110;BME280;14965;50.660;13.226;2023-03-22T05:45:41;94532.75;;;6.06;98.97
30110;BME280;14965;50.660;13.226;2023-03-22T05:48:07;94525.63;;;6.12;98.78
30110;BME280;14965;50.660;13.226;2023-03-22T05:50:33;94524.69;;;6.18;98.50
30110;BME280;14965;50.660;13.226;2023-03-22T05:52:59;94522.28;;;6.24;98.15
30110;BME280;14965;50.660;13.226;2023-03-22T05:55:26;94522.91;;;6.32;97.98
30110;BME280;14965;50.660;13.226;2023-03-22T05:57:53;94522.78;;;6.39;97.93
30110;BME280;14965;50.660;13.226;2023-03-22T06:00:20;94522.31;;;6.44;97.53
30110;BME280;14965;50.660;13.226;2023-03-22T06:02:48;94524.13;;;6.51;97.17
30110;BME280;14965;50.660;13.226;2023-03-22T06:05:15;94511.88;;;6.55;96.78
30110;BME280;14965;50.660;13.226;2023-03-22T06:07:42;94513.72;;;6.62;96.66
30110;BME280;14965;50.660;13.226;2023-03-22T06:10:13;94508.13;;;6.69;96.43
30110;BME280;14965;50.660;13.226;2023-03-22T06:12:39;94508.81;;;6.73;95.98
30110;BME280;14965;50.660;13.226;2023-03-22T06:15:08;94509.09;;;6.79;95.78
30110;BME280;14965;50.660;13.226;2023-03-22T06:17:35;94512.88;;;6.85;95.17
30110;BME280;14965;50.660;13.226;2023-03-22T06:20:01;94507.69;;;6.90;94.62
30110;BME280;14965;50.660;13.226;2023-03-22T06:22:27;94504.00;;;6.97;93.96
30110;BME280;14965;50.660;13.226;2023-03-22T06:24:53;94511.66;;;7.06;93.44
30110;BME280;14965;50.660;13.226;2023-03-22T06:27:19;94498.94;;;7.15;92.96
30110;BME280;14965;50.660;13.226;2023-03-22T06:29:44;94513.19;;;7.27;92.72
30110;BME280;14965;50.660;13.226;2023-03-22T06:32:12;94514.94;;;7.37;92.23
30110;BME280;14965;50.660;13.226;2023-03-22T06:34:37;94508.41;;;7.47;91.33
30110;BME280;14965;50.660;13.226;2023-03-22T06:37:03;94501.47;;;7.59;90.47
30110;BME280;14965;50.660;13.226;2023-03-22T06:39:29;94499.25;;;7.70;90.15
30110;BME280;14965;50.660;13.226;2023-03-22T06:41:55;94500.28;;;7.76;88.30
30110;BME280;14965;50.660;13.226;2023-03-22T06:44:21;94504.84;;;7.83;86.90
30110;BME280;14965;50.660;13.226;2023-03-22T06:46:47;94498.31;;;7.93;86.68
30110;BME280;14965;50.660;13.226;2023-03-22T06:49:14;94503.13;;;8.05;86.27
30110;BME280;14965;50.660;13.226;2023-03-22T06:51:40;94502.09;;;8.15;85.78
30110;BME280;14965;50.660;13.226;2023-03-22T06:54:06;94513.34;;;8.21;84.62
30110;BME280;14965;50.660;13.226;2023-03-22T06:56:32;94507.31;;;8.26;82.61
30110;BME280;14965;50.660;13.226;2023-03-22T06:58:57;94508.75;;;8.31;82.11
30110;BME280;14965;50.660;13.226;2023-03-22T07:01:24;94514.13;;;8.38;81.34
30110;BME280;14965;50.660;13.226;2023-03-22T07:03:50;94511.19;;;8.45;81.08
30110;BME280;14965;50.660;13.226;2023-03-22T07:06:17;94513.22;;;8.57;81.07
30110;BME280;14965;50.660;13.226;2023-03-22T07:08:43;94507.09;;;8.66;80.71
30110;BME280;14965;50.660;13.226;2023-03-22T07:11:08;94502.47;;;8.76;79.99
30110;BME280;14965;50.660;13.226;2023-03-22T07:13:34;94513.22;;;8.86;80.01
30110;BME280;14965;50.660;13.226;2023-03-22T07:16:01;94503.88;;;8.96;79.69
30110;BME280;14965;50.660;13.226;2023-03-22T07:18:28;94503.22;;;9.05;79.14
30110;BME280;14965;50.660;13.226;2023-03-22T07:20:54;94503.03;;;9.12;77.70
30110;BME280;14965;50.660;13.226;2023-03-22T07:23:21;94507.09;;;9.08;77.55
30110;BME280;14965;50.660;13.226;2023-03-22T07:25:47;94506.19;;;9.11;77.50
30110;BME280;14965;50.660;13.226;2023-03-22T07:28:14;94502.00;;;9.06;77.87
30110;BME280;14965;50.660;13.226;2023-03-22T07:30:41;94502.34;;;9.08;77.96
30110;BME280;14965;50.660;13.226;2023-03-22T07:33:09;94502.69;;;9.10;78.42
30110;BME280;14965;50.660;13.226;2023-03-22T07:35:36;94519.22;;;9.10;78.87
30110;BME280;14965;50.660;13.226;2023-03-22T07:38:03;94511.72;;;9.11;78.63
30110;BME280;14965;50.660;13.226;2023-03-22T07:40:31;94508.72;;;9.05;78.49
30110;BME280;14965;50.660;13.226;2023-03-22T07:42:57;94505.75;;;9.00;78.53
30110;BME280;14965;50.660;13.226;2023-03-22T07:45:24;94499.03;;;9.01;79.05
30110;BME280;14965;50.660;13.226;2023-03-22T07:47:50;94507.50;;;8.93;78.16
30110;BME280;14965;50.660;13.226;2023-03-22T07:50:17;94498.00;;;8.94;78.27
30110;BME280;14965;50.660;13.226;2023-03-22T07:52:44;94500.25;;;9.00;77.75
30110;BME280;14965;50.660;13.226;2023-03-22T07:55:12;94497.28;;;9.07;77.63
30110;BME280;14965;50.660;13.226;2023-03-22T07:57:40;94505.34;;;9.14;77.35
30110;BME280;14965;50.660;13.226;2023-03-22T08:00:07;94496.41;;;9.22;77.01
30110;BME280;14965;50.660;13.226;2023-03-22T08:02:33;94495.88;;;9.28;74.81
30110;BME280;14965;50.660;13.226;2023-03-22T08:04:59;94504.47;;;9.30;73.88
30110;BME280;14965;50.660;13.226;2023-03-22T08:07:25;94499.63;;;9.34;72.94
30110;BME280;14965;50.660;13.226;2023-03-22T08:09:51;94502.41;;;9.46;73.85
30110;BME280;14965;50.660;13.226;2023-03-22T08:12:17;94508.91;;;9.53;72.66
30110;BME280;14965;50.660;13.226;2023-03-22T08:14:45;94507.81;;;9.63;72.54
30110;BME280;14965;50.660;13.226;2023-03-22T08:17:14;94508.59;;;9.76;72.90
30110;BME280;14965;50.660;13.226;2023-03-22T08:19:43;94504.84;;;9.83;72.67
30110;BME280;14965;50.660;13.226;2023-03-22T08:22:09;94507.91;;;9.85;70.74
30110;BME280;14965;50.660;13.226;2023-03-22T08:24:35;94503.59;;;9.96;71.52
30110;BME280;14965;50.660;13.226;2023-03-22T08:27:01;94503.69;;;10.06;71.44
30110;BME280;14965;50.660;13.226;2023-03-22T08:29:27;94506.22;;;10.26;70.52
30110;BME280;14965;50.660;13.226;2023-03-22T08:31:54;94501.41;;;10.52;69.64
30110;BME280;14965;50.660;13.226;2023-03-22T08:34:20;94505.06;;;10.83;68.87
30110;BME280;14965;50.660;13.226;2023-03-22T08:36:46;94506.97;;;11.17;67.54
30110;BME280;14965;50.660;13.226;2023-03-22T08:39:12;94503.47;;;11.57;67.39
30110;BME280;14965;50.660;13.226;2023-03-22T08:41:38;94508.03;;;12.04;65.75
30110;BME280;14965;50.660;13.226;2023-03-22T08:44:04;94497.47;;;12.39;63.21
30110;BME280;14965;50.660;13.226;2023-03-22T08:46:30;94499.19;;;12.74;63.88
30110;BME280;14965;50.660;13.226;2023-03-22T11:49:48;94350.03;;;14.53;52.37
30110;BME280;14965;50.660;13.226;2023-03-22T11:52:18;94339.72;;;14.44;52.57
30110;BME280;14965;50.660;13.226;2023-03-22T11:54:46;94339.25;;;14.45;53.36
30110;BME280;14965;50.660;13.226;2023-03-22T11:57:15;94331.66;;;14.46;53.53
30110;BME280;14965;50.660;13.226;2023-03-22T11:59:49;94332.28;;;14.50;52.22
30110;BME280;14965;50.660;13.226;2023-03-22T12:02:23;94326.72;;;14.50;51.82
30110;BME280;14965;50.660;13.226;2023-03-22T12:04:58;94325.94;;;14.35;50.16
30110;BME280;14965;50.660;13.226;2023-03-22T12:07:27;94326.38;;;14.18;51.55
30110;BME280;14965;50.660;13.226;2023-03-22T12:10:00;94313.41;;;14.15;52.37
30110;BME280;14965;50.660;13.226;2023-03-22T12:12:32;94314.31;;;14.22;53.29
30110;BME280;14965;50.660;13.226;2023-03-22T12:15:04;94315.84;;;14.37;53.39
30110;BME280;14965;50.660;13.226;2023-03-22T12:17:37;94306.75;;;14.37;52.46
30110;BME280;14965;50.660;13.226;2023-03-22T12:20:20;94310.78;;;14.36;52.86
30110;BME280;14965;50.660;13.226;2023-03-22T12:22:54;94307.56;;;14.52;52.28
30110;BME280;14965;50.660;13.226;2023-03-22T12:25:26;94304.13;;;14.57;52.02
30110;BME280;14965;50.660;13.226;2023-03-22T12:27:57;94303.44;;;14.62;52.66
30110;BME280;14965;50.660;13.226;2023-03-22T12:30:27;94314.28;;;14.60;51.37
30110;BME280;14965;50.660;13.226;2023-03-22T12:33:02;94304.38;;;14.44;51.49
30110;BME280;14965;50.660;13.226;2023-03-22T12:35:35;94305.28;;;14.51;50.61
30110;BME280;14965;50.660;13.226;2023-03-22T12:38:24;94295.81;;;14.72;50.65
30110;BME280;14965;50.660;13.226;2023-03-22T12:40:53;94293.38;;;14.94;50.58
30110;BME280;14965;50.660;13.226;2023-03-22T12:43:36;94289.91;;;15.00;48.13
30110;BME280;14965;50.660;13.226;2023-03-22T12:46:09;94287.44;;;15.02;48.93
30110;BME280;14965;50.660;13.226;2023-03-22T12:48:46;94287.31;;;14.96;46.69
30110;BME280;14965;50.660;13.226;2023-03-22T12:51:15;94290.69;;;15.00;48.16
30110;BME280;14965;50.660;13.226;2023-03-22T12:53:45;94282.94;;;14.75;48.75
30110;BME280;14965;50.660;13.226;2023-03-22T12:56:16;94296.25;;;14.70;49.80
30110;BME280;14965;50.660;13.226;2023-03-22T12:58:48;94284.84;;;14.83;50.81
30110;BME280;14965;50.660;13.226;2023-03-22T13:01:29;94281.72;;;14.76;49.42
30110;BME280;14965;50.660;13.226;2023-03-22T13:03:56;94275.75;;;14.83;48.99
30110;BME280;14965;50.660;13.226;2023-03-22T13:06:54;94282.56;;;14.82;47.71
30110;BME280;14965;50.660;13.226;2023-03-22T13:09:36;94290.44;;;14.68;47.68
30110;BME280;14965;50.660;13.226;2023-03-22T13:12:27;94286.41;;;14.69;48.51
30110;BME280;14965;50.660;13.226;2023-03-22T13:15:30;94282.28;;;14.65;48.49
30110;BME280;14965;50.660;13.226;2023-03-22T13:17:57;94278.25;;;14.66;49.25
30110;BME280;14965;50.660;13.226;2023-03-22T13:20:31;94284.94;;;14.44;49.36
30110;BME280;14965;50.660;13.226;2023-03-22T13:23:23;94286.06;;;14.38;48.39
30110;BME280;14965;50.660;13.226;2023-03-22T13:26:01;94283.28;;;14.38;50.34
30110;BME280;14965;50.660;13.226;2023-03-22T13:28:28;94288.13;;;14.52;49.24
30110;BME280;14965;50.660;13.226;2023-03-22T13:30:57;94286.19;;;14.58;49.61
30110;BME280;14965;50.660;13.226;2023-03-22T13:33:40;94280.94;;;14.60;49.61
30110;BME280;14965;50.660;13.226;2023-03-22T13:36:22;94275.66;;;14.77;50.21
30110;BME280;14965;50.660;13.226;2023-03-22T13:38:56;94270.75;;;15.02;50.19
30110;BME280;14965;50.660;13.226;2023-03-22T13:41:27;94262.09;;;15.00;46.97
30110;BME280;14965;50.660;13.226;2023-03-22T13:43:56;94260.28;;;15.11;47.37
30110;BME280;14965;50.660;13.226;2023-03-22T13:46:43;94259.19;;;15.24;47.42
30110;BME280;14965;50.660;13.226;2023-03-22T13:49:41;94249.88;;;15.27;46.81
30110;BME280;14965;50.660;13.226;2023-03-22T13:52:22;94248.44;;;15.16;47.09
30110;BME280;14965;50.660;13.226;2023-03-22T13:54:55;94251.66;;;15.09;46.23
30110;BME280;14965;50.660;13.226;2023-03-22T13:57:56;94241.50;;;15.06;46.54
30110;BME280;14965;50.660;13.226;2023-03-22T14:00:39;94230.06;;;15.04;47.96
30110;BME280;14965;50.660;13.226;2023-03-22T14:03:19;94232.19;;;15.09;46.88
30110;BME280;14965;50.660;13.226;2023-03-22T14:06:02;94232.00;;;14.98;46.91
30110;BME280;14965;50.660;13.226;2023-03-22T14:08:31;94230.50;;;14.97;47.09
30110;BME280;14965;50.660;13.226;2023-03-22T14:11:09;94228.94;;;14.96;46.99
30110;BME280;14965;50.660;13.226;2023-03-22T14:13:45;94222.66;;;14.81;46.45
30110;BME280;14965;50.660;13.226;2023-03-22T14:16:17;94221.59;;;14.78;45.92
30110;BME280;14965;50.660;13.226;2023-03-22T14:18:47;94231.47;;;14.79;44.84
30110;BME280;14965;50.660;13.226;2023-03-22T14:21:18;94223.78;;;14.89;45.65
30110;BME280;14965;50.660;13.226;2023-03-22T14:23:50;94232.50;;;14.97;46.28
30110;BME280;14965;50.660;13.226;2023-03-22T14:26:23;94228.66;;;14.94;45.25
30110;BME280;14965;50.660;13.226;2023-03-22T14:28:50;94228.94;;;14.96;45.54
30110;BME280;14965;50.660;13.226;2023-03-22T14:31:21;94218.81;;;14.78;45.69
30110;BME280;14965;50.660;13.226;2023-03-22T14:33:50;94217.00;;;14.75;46.12
30110;BME280;14965;50.660;13.226;2023-03-22T14:36:17;94214.44;;;14.72;45.58
30110;BME280;14965;50.660;13.226;2023-03-22T14:38:46;94219.63;;;14.64;45.99
30110;BME280;14965;50.660;13.226;2023-03-22T14:41:16;94219.91;;;14.51;46.65
30110;BME280;14965;50.660;13.226;2023-03-22T14:43:45;94223.03;;;14.44;45.56
30110;BME280;14965;50.660;13.226;2023-03-22T14:46:18;94216.41;;;14.41;45.70
30110;BME280;14965;50.660;13.226;2023-03-22T14:48:52;94214.31;;;14.36;46.51
30110;BME280;14965;50.660;13.226;2023-03-22T14:51:22;94225.72;;;14.38;45.98
30110;BME280;14965;50.660;13.226;2023-03-22T14:53:50;94228.03;;;14.40;45.80
30110;BME280;14965;50.660;13.226;2023-03-22T14:56:20;94231.19;;;14.48;45.37
30110;BME280;14965;50.660;13.226;2023-03-22T14:58:54;94222.41;;;14.49;46.03
30110;BME280;14965;50.660;13.226;2023-03-22T15:01:27;94226.03;;;14.55;46.15
30110;BME280;14965;50.660;13.226;2023-03-22T15:03:59;94220.38;;;14.35;44.07
30110;BME280;14965;50.660;13.226;2023-03-22T15:06:28;94221.81;;;14.30;45.15
30110;BME280;14965;50.660;13.226;2023-03-22T15:09:02;94222.56;;;14.31;45.81
30110;BME280;14965;50.660;13.226;2023-03-22T15:11:32;94216.03;;;14.19;44.20
30110;BME280;14965;50.660;13.226;2023-03-22T15:14:01;94217.75;;;14.16;44.81
30110;BME280;14965;50.660;13.226;2023-03-22T15:16:33;94222.66;;;14.22;45.01
30110;BME280;14965;50.660;13.226;2023-03-22T15:19:01;94221.28;;;14.17;45.57
30110;BME280;14965;50.660;13.226;2023-03-22T15:21:30;94224.47;;;14.10;44.86
30110;BME280;14965;50.660;13.226;2023-03-22T15:24:13;94205.97;;;14.07;46.85
30110;BME280;14965;50.660;13.226;2023-03-22T15:26:39;94217.28;;;14.03;47.13
30110;BME280;14965;50.660;13.226;2023-03-22T15:29:08;94214.84;;;13.96;46.90
30110;BME280;14965;50.660;13.226;2023-03-22T15:31:41;94215.16;;;13.98;47.72
30110;BME280;14965;50.660;13.226;2023-03-22T15:34:15;94215.44;;;14.00;48.16
30110;BME280;14965;50.660;13.226;2023-03-22T15:36:45;94218.59;;;13.93;46.13
30110;BME280;14965;50.660;13.226;2023-03-22T15:39:18;94216.88;;;13.81;46.10
30110;BME280;14965;50.660;13.226;2023-03-22T15:41:51;94221.06;;;13.76;46.50
30110;BME280;14965;50.660;13.226;2023-03-22T15:44:28;94228.03;;;13.72;47.09
30110;BME280;14965;50.660;13.226;2023-03-22T15:46:56;94228.16;;;13.53;45.77
30110;BME280;14965;50.660;13.226;2023-03-22T15:49:35;94224.03;;;13.49;46.29
30110;BME280;14965;50.660;13.226;2023-03-22T15:52:11;94225.56;;;13.50;46.70
30110;BME280;14965;50.660;13.226;2023-03-22T15:54:43;94237.91;;;13.49;46.76
30110;BME280;14965;50.660;13.226;2023-03-22T15:57:18;94230.06;;;13.47;46.10
30110;BME280;14965;50.660;13.226;2023-03-22T16:00:02;94232.25;;;13.43;45.56
30110;BME280;14965;50.660;13.226;2023-03-22T16:02:31;94225.81;;;13.37;45.72
30110;BME280;14965;50.660;13.226;2023-03-22T16:04:59;94232.59;;;13.36;46.78
30110;BME280;14965;50.660;13.226;2023-03-22T16:07:28;94237.97;;;13.39;46.35
30110;BME280;14965;50.660;13.226;2023-03-22T16:10:07;94246.56;;;13.41;47.75
30110;BME280;14965;50.660;13.226;2023-03-22T16:12:34;94238.91;;;13.36;47.12
30110;BME280;14965;50.660;13.226;2023-03-22T16:15:10;94239.38;;;13.35;47.38
30110;BME280;14965;50.660;13.226;2023-03-22T16:17:38;94230.13;;;13.38;48.06